createdAt,value
2018-11-07T00:01:01.619Z,75.24
2018-11-07T00:03:30.118Z,75.58
2018-11-07T00:05:58.602Z,75.33
2018-11-07T00:08:27.140Z,75.96
2018-11-07T00:10:55.938Z,75.99
2018-11-07T00:13:24.428Z,75.70
2018-11-07T00:15:52.942Z,76.30
2018-11-07T00:18:21.433Z,75.91
2018-11-07T00:20:49.954Z,76.07
2018-11-07T00:23:18.478Z,75.98
2018-11-07T00:25:46.964Z,76.38
2018-11-07T00:28:15.450Z,76.62
2018-11-07T00:30:43.946Z,76.33
2018-11-07T00:33:12.432Z,76.06
2018-11-07T00:35:40.959Z,75.78
2018-11-07T00:38:09.750Z,76.39
2018-11-07T00:40:38.285Z,75.90
2018-11-07T00:45:59.763Z,75.69
2018-11-07T00:48:28.296Z,75.87
2018-11-07T00:50:56.800Z,75.98
2018-11-07T00:53:25.322Z,76.42
2018-11-07T00:55:53.800Z,76.15
2018-11-07T00:58:22.271Z,76.25
2018-11-07T01:00:50.759Z,76.50
2018-11-07T01:03:19.258Z,76.39
2018-11-07T01:05:47.779Z,76.59
2018-11-07T01:08:16.288Z,76.01
2018-11-07T01:10:44.790Z,76.06
2018-11-07T01:13:14.134Z,76.29
2018-11-07T01:15:42.667Z,76.41
2018-11-07T01:18:11.325Z,76.51
2018-11-07T01:20:39.823Z,76.29
2018-11-07T01:23:08.339Z,76.50
2018-11-07T01:25:36.825Z,76.55
2018-11-07T01:28:05.647Z,76.95
2018-11-07T01:30:34.099Z,77.10
2018-11-07T01:33:02.615Z,76.79
2018-11-07T01:35:31.466Z,77.00
2018-11-07T01:37:59.964Z,77.43
2018-11-07T01:40:28.463Z,77.39
2018-11-07T01:42:56.979Z,77.68
2018-11-07T01:45:25.463Z,77.45
2018-11-07T01:47:54.408Z,77.71
2018-11-07T01:50:22.912Z,77.40
2018-11-07T01:52:51.415Z,77.83
2018-11-07T01:55:19.954Z,77.62
2018-11-07T01:57:48.462Z,77.91
2018-11-07T02:00:16.957Z,78.60
2018-11-07T02:02:45.469Z,78.48
2018-11-07T02:05:14.422Z,77.99
2018-11-07T02:07:43.430Z,77.95
2018-11-07T02:10:12.190Z,77.62
2018-11-07T02:12:41.559Z,77.54
2018-11-07T02:15:10.758Z,77.63
2018-11-07T02:17:39.305Z,77.65
2018-11-07T02:20:09.170Z,77.80
2018-11-07T02:22:37.703Z,77.87
2018-11-07T02:25:06.601Z,77.93
2018-11-07T02:27:35.109Z,78.09
2018-11-07T02:30:03.715Z,77.19
2018-11-07T02:32:32.207Z,77.34
2018-11-07T02:35:00.718Z,77.57
2018-11-07T02:37:29.218Z,78.10
2018-11-07T02:39:57.737Z,77.58
2018-11-07T02:42:26.237Z,77.78
2018-11-07T02:44:54.737Z,78.16
2018-11-07T02:47:23.227Z,77.79
2018-11-07T02:49:51.748Z,77.25
2018-11-07T02:52:20.322Z,77.13
2018-11-07T02:54:48.830Z,77.21
2018-11-07T02:57:17.551Z,77.57
2018-11-07T02:59:46.052Z,77.83
2018-11-07T03:02:15.393Z,77.38
2018-11-07T03:04:43.922Z,77.67
2018-11-07T03:07:12.398Z,77.67
2018-11-07T03:09:40.879Z,77.26
2018-11-07T03:12:09.379Z,77.54
2018-11-07T03:14:37.903Z,77.64
2018-11-07T03:17:06.582Z,77.77
2018-11-07T03:19:35.092Z,77.32
2018-11-07T03:22:03.623Z,77.76
2018-11-07T03:24:32.160Z,77.67
2018-11-07T03:27:00.662Z,77.47
2018-11-07T03:29:29.558Z,77.74
2018-11-07T03:31:58.150Z,77.93
2018-11-07T03:34:26.646Z,78.18
2018-11-07T03:37:04.967Z,77.78
2018-11-07T03:39:38.853Z,77.73
2018-11-07T03:42:07.338Z,77.61
2018-11-07T03:44:35.951Z,77.62
2018-11-07T03:47:16.474Z,78.30
2018-11-07T03:49:55.962Z,78.53
2018-11-07T03:52:36.291Z,78.49
2018-11-07T03:55:15.946Z,78.87
2018-11-07T03:57:54.951Z,78.54
2018-11-07T04:00:25.043Z,78.42
2018-11-07T04:03:03.736Z,78.08
2018-11-07T04:05:32.266Z,78.06
2018-11-07T04:08:00.765Z,77.97
2018-11-07T04:10:29.279Z,78.48
2018-11-07T04:13:08.170Z,78.01
2018-11-07T04:15:36.693Z,78.39
2018-11-07T04:18:05.291Z,78.30
2018-11-07T04:20:34.130Z,77.93
2018-11-07T04:23:02.944Z,77.78
2018-11-07T04:25:45.777Z,78.25
2018-11-07T04:28:24.882Z,78.38
2018-11-07T04:30:53.407Z,78.26
2018-11-07T04:33:21.911Z,78.46
2018-11-07T04:36:03.712Z,78.44
2018-11-07T04:38:47.687Z,78.93
2018-11-07T04:41:26.376Z,79.18
2018-11-07T04:44:05.819Z,78.76
2018-11-07T04:46:37.139Z,78.80
2018-11-07T04:49:16.129Z,78.21
2018-11-07T04:51:44.635Z,78.09
2018-11-07T04:54:13.131Z,78.88
2018-11-07T04:56:52.601Z,78.86
2018-11-07T04:59:21.128Z,79.16
2018-11-07T05:01:50.493Z,78.89
2018-11-07T05:04:18.980Z,79.23
2018-11-07T05:06:57.372Z,79.06
2018-11-07T05:09:38.884Z,79.97
2018-11-07T05:12:17.318Z,79.55
2018-11-07T05:14:50.216Z,79.76
2018-11-07T05:17:25.099Z,79.63
2018-11-07T05:19:53.605Z,79.54
2018-11-07T05:22:22.083Z,78.90
2018-11-07T05:24:50.646Z,79.50
2018-11-07T05:27:19.158Z,79.56
2018-11-07T05:29:47.664Z,79.83
2018-11-07T05:32:16.165Z,79.97
2018-11-07T05:34:44.674Z,79.33
2018-11-07T05:37:13.191Z,79.86
2018-11-07T05:39:41.679Z,79.63
2018-11-07T05:42:10.178Z,79.76
2018-11-07T05:44:38.659Z,80.15
2018-11-07T05:47:07.263Z,79.76
2018-11-07T05:49:35.747Z,79.39
2018-11-07T05:52:04.278Z,79.91
2018-11-07T05:54:32.886Z,79.45
2018-11-07T05:57:01.450Z,80.10
2018-11-07T05:59:29.979Z,80.11
2018-11-07T06:01:58.513Z,80.67
2018-11-07T06:04:27.054Z,80.15
2018-11-07T06:06:55.564Z,80.73
2018-11-07T06:09:24.078Z,80.68
2018-11-07T06:11:52.604Z,80.52
2018-11-07T06:17:13.526Z,80.84
2018-11-07T06:19:42.012Z,81.39
2018-11-07T06:22:10.498Z,81.42
2018-11-07T06:24:39.043Z,81.08
2018-11-07T06:27:07.719Z,80.96
2018-11-07T06:29:36.243Z,80.78
2018-11-07T06:32:04.804Z,81.14
2018-11-07T06:34:33.312Z,80.92
2018-11-07T06:37:01.851Z,81.02
2018-11-07T06:39:30.379Z,80.90
2018-11-07T06:41:58.870Z,80.64
2018-11-07T06:44:27.418Z,80.55
2018-11-07T06:46:55.877Z,80.55
2018-11-07T06:49:24.407Z,80.68
2018-11-07T06:52:02.554Z,80.72
2018-11-07T06:54:31.074Z,80.83
2018-11-07T06:56:59.594Z,81.13
2018-11-07T06:59:28.101Z,80.78
2018-11-07T07:01:57.485Z,81.11
2018-11-07T07:04:25.979Z,81.50
2018-11-07T07:06:54.467Z,81.20
2018-11-07T07:09:22.967Z,81.19
2018-11-07T07:11:51.463Z,81.42
2018-11-07T07:14:19.961Z,81.58
2018-11-07T07:16:48.496Z,81.44
2018-11-07T07:19:17.079Z,81.57
2018-11-07T07:21:45.590Z,81.57
2018-11-07T07:24:14.134Z,81.63
2018-11-07T07:26:42.659Z,82.19
2018-11-07T07:29:11.250Z,81.96
2018-11-07T07:31:39.793Z,81.67
2018-11-07T07:34:08.426Z,81.88
2018-11-07T07:36:36.918Z,81.80
2018-11-07T07:39:08.169Z,81.95
2018-11-07T07:41:37.169Z,81.57
2018-11-07T07:44:06.577Z,82.30
2018-11-07T07:46:57.029Z,82.62
2018-11-07T07:49:25.640Z,82.12
2018-11-07T07:51:54.086Z,82.37
2018-11-07T07:54:22.592Z,82.18
2018-11-07T07:56:51.118Z,82.18
2018-11-07T07:59:19.607Z,82.21
2018-11-07T08:01:48.146Z,81.93
2018-11-07T08:04:17.014Z,82.14
2018-11-07T08:06:45.542Z,82.23
2018-11-07T08:09:14.481Z,82.82
2018-11-07T08:11:42.991Z,83.46
2018-11-07T08:14:11.475Z,83.66
2018-11-07T08:16:39.986Z,82.12
2018-11-07T08:19:09.522Z,83.18
2018-11-07T08:21:38.049Z,82.62
2018-11-07T08:24:06.567Z,82.71
2018-11-07T08:26:35.522Z,81.64
2018-11-07T08:29:05.203Z,83.15
2018-11-07T08:31:33.913Z,82.72
2018-11-07T08:34:03.482Z,82.32
2018-11-07T08:36:32.122Z,82.44
2018-11-07T08:39:00.690Z,81.42
2018-11-07T08:41:29.235Z,82.75
2018-11-07T08:43:57.738Z,80.23
2018-11-07T08:46:26.271Z,79.28
2018-11-07T08:48:54.775Z,77.12
2018-11-07T08:51:23.291Z,76.34
2018-11-07T08:53:51.815Z,75.61
2018-11-07T08:56:20.651Z,75.06
2018-11-07T08:58:49.220Z,73.23
2018-11-07T09:01:17.754Z,73.27
2018-11-07T09:03:46.247Z,72.27
2018-11-07T09:06:15.242Z,71.68
2018-11-07T09:08:43.818Z,70.10
2018-11-07T09:11:12.609Z,69.29
2018-11-07T09:13:41.102Z,69.88
2018-11-07T09:16:09.590Z,69.76
2018-11-07T09:18:38.126Z,68.78
2018-11-07T09:21:06.629Z,66.88
2018-11-07T09:23:35.150Z,66.70
2018-11-07T09:26:03.840Z,67.04
2018-11-07T09:28:32.351Z,65.18
2018-11-07T09:31:00.875Z,65.11
2018-11-07T09:33:29.372Z,63.39
2018-11-07T09:35:57.867Z,64.14
2018-11-07T09:38:26.371Z,65.42
2018-11-07T09:40:54.875Z,65.57
2018-11-07T09:43:23.397Z,63.73
2018-11-07T09:45:51.891Z,64.61
2018-11-07T09:48:20.528Z,63.61
2018-11-07T09:50:48.962Z,63.96
2018-11-07T09:53:17.510Z,62.59
2018-11-07T09:55:46.087Z,59.67
2018-11-07T09:58:14.635Z,60.67
2018-11-07T10:00:43.210Z,60.23
2018-11-07T10:03:11.715Z,60.25
2018-11-07T10:05:40.276Z,58.42
2018-11-07T10:08:08.764Z,58.31
2018-11-07T10:10:37.288Z,57.91
2018-11-07T10:13:05.867Z,55.93
2018-11-07T10:15:34.431Z,56.06
2018-11-07T10:18:03.136Z,55.93
2018-11-07T10:20:31.642Z,55.82
2018-11-07T10:23:00.156Z,56.61
2018-11-07T10:25:28.714Z,52.31
2018-11-07T10:27:57.621Z,52.94
2018-11-07T10:30:25.872Z,54.25
2018-11-07T10:32:54.343Z,53.65
2018-11-07T10:35:22.864Z,52.35
2018-11-07T10:37:51.439Z,52.54
2018-11-07T10:40:21.602Z,52.32
2018-11-07T10:42:50.149Z,51.51
2018-11-07T10:45:18.711Z,48.77
2018-11-07T10:47:47.989Z,50.39
2018-11-07T10:50:17.491Z,49.88
2018-11-07T10:52:46.484Z,47.96
2018-11-07T10:55:15.820Z,47.87
2018-11-07T10:57:44.394Z,47.77
2018-11-07T11:00:19.496Z,49.28
2018-11-07T11:02:52.997Z,48.75
2018-11-07T11:05:22.395Z,49.08
2018-11-07T11:07:51.023Z,49.78
2018-11-07T11:10:19.539Z,51.51
2018-11-07T11:12:48.166Z,49.96
2018-11-07T11:15:16.675Z,48.43
2018-11-07T11:17:45.178Z,47.68
2018-11-07T11:20:14.571Z,47.34
2018-11-07T11:22:43.192Z,47.91
2018-11-07T11:25:11.927Z,48.73
2018-11-07T11:27:40.448Z,47.17
2018-11-07T11:30:09.862Z,48.39
2018-11-07T11:32:38.621Z,47.17
2018-11-07T11:35:08.244Z,47.41
2018-11-07T11:37:37.078Z,48.81
2018-11-07T11:40:07.143Z,50.44
2018-11-07T11:42:35.668Z,49.13
2018-11-07T11:45:04.234Z,49.43
2018-11-07T11:47:32.763Z,49.68
2018-11-07T11:50:01.632Z,51.18
2018-11-07T11:52:30.147Z,50.57
2018-11-07T11:54:58.649Z,52.04
2018-11-07T11:57:27.236Z,52.10
2018-11-07T11:59:56.079Z,51.99
2018-11-07T12:02:24.367Z,51.79
2018-11-07T12:04:52.851Z,53.93
2018-11-07T12:07:21.365Z,52.43
2018-11-07T12:09:50.303Z,52.22
2018-11-07T12:15:11.188Z,52.94
2018-11-07T12:17:39.755Z,53.86
2018-11-07T12:20:08.653Z,53.33
2018-11-07T12:22:37.158Z,52.61
2018-11-07T12:25:07.177Z,54.17
2018-11-07T12:27:35.703Z,53.33
2018-11-07T12:30:04.855Z,52.63
2018-11-07T12:32:33.372Z,52.83
2018-11-07T12:35:01.919Z,52.24
2018-11-07T12:37:30.447Z,54.38
2018-11-07T12:39:58.984Z,54.76
2018-11-07T12:42:27.583Z,52.98
2018-11-07T12:44:56.111Z,53.80
2018-11-07T12:47:24.686Z,54.09
2018-11-07T12:49:53.328Z,54.61
2018-11-07T12:52:21.773Z,54.31
2018-11-07T12:54:50.286Z,54.15
2018-11-07T12:57:18.943Z,54.62
2018-11-07T12:59:47.358Z,55.88
2018-11-07T13:02:15.894Z,55.38
2018-11-07T13:04:44.486Z,55.02
2018-11-07T13:07:12.950Z,55.02
2018-11-07T13:09:41.811Z,55.37
2018-11-07T13:12:10.337Z,54.98
2018-11-07T13:14:38.983Z,56.08
2018-11-07T13:17:07.651Z,55.57
2018-11-07T13:19:36.168Z,56.46
2018-11-07T13:22:05.047Z,55.32
2018-11-07T13:24:33.619Z,56.65
2018-11-07T13:27:02.220Z,55.92
2018-11-07T13:29:30.754Z,56.18
2018-11-07T13:31:59.291Z,56.54
2018-11-07T13:34:27.860Z,56.68
2018-11-07T13:36:56.459Z,55.80
2018-11-07T13:39:24.858Z,56.93
2018-11-07T13:41:53.355Z,56.26
2018-11-07T13:44:21.896Z,57.48
2018-11-07T13:46:50.460Z,57.06
2018-11-07T13:49:18.955Z,57.14
2018-11-07T13:51:47.453Z,57.31
2018-11-07T13:54:16.399Z,57.24
2018-11-07T13:56:44.923Z,58.01
2018-11-07T13:59:13.523Z,58.12
2018-11-07T14:01:41.996Z,57.87
2018-11-07T14:04:10.492Z,58.23
2018-11-07T14:06:39.031Z,58.28
2018-11-07T14:09:10.190Z,57.56
2018-11-07T14:11:39.078Z,57.67
2018-11-07T14:14:08.690Z,57.41
2018-11-07T14:16:37.498Z,58.92
2018-11-07T14:19:07.840Z,58.59
2018-11-07T14:21:36.465Z,59.12
2018-11-07T14:24:06.712Z,59.10
2018-11-07T14:26:35.379Z,58.89
2018-11-07T14:29:05.883Z,59.03
2018-11-07T14:31:34.455Z,59.47
2018-11-07T14:34:05.827Z,60.06
2018-11-07T14:36:34.391Z,60.71
2018-11-07T14:39:04.310Z,60.71
2018-11-07T14:41:32.802Z,61.13
2018-11-07T14:44:01.497Z,61.61
2018-11-07T14:46:30.087Z,62.48
2018-11-07T14:48:58.591Z,62.04
2018-11-07T14:51:27.111Z,62.23
2018-11-07T14:53:55.676Z,62.39
2018-11-07T14:56:24.255Z,62.79
2018-11-07T14:58:53.179Z,63.18
2018-11-07T15:01:21.729Z,63.21
2018-11-07T15:03:50.231Z,63.11
2018-11-07T15:06:18.724Z,63.48
2018-11-07T15:08:47.278Z,64.15
2018-11-07T15:11:15.763Z,64.32
2018-11-07T15:13:44.295Z,64.59
2018-11-07T15:16:12.791Z,64.93
2018-11-07T15:18:41.301Z,65.65
2018-11-07T15:21:09.854Z,65.53
2018-11-07T15:23:38.379Z,65.64
2018-11-07T15:26:06.875Z,65.85
2018-11-07T15:28:35.444Z,64.86
2018-11-07T15:31:04.013Z,65.07
2018-11-07T15:33:32.691Z,65.54
2018-11-07T15:36:01.295Z,65.96
2018-11-07T15:38:29.771Z,65.54
2018-11-07T15:40:58.303Z,66.01
2018-11-07T15:43:27.026Z,66.08
2018-11-07T15:45:55.475Z,66.30
2018-11-07T15:48:23.975Z,66.01
2018-11-07T15:50:57.615Z,66.45
2018-11-07T15:53:26.101Z,66.05
2018-11-07T15:55:54.616Z,66.35
2018-11-07T15:58:23.171Z,66.61
2018-11-07T16:00:51.676Z,66.84
2018-11-07T16:03:25.435Z,67.51
2018-11-07T16:05:53.931Z,66.91
2018-11-07T16:08:22.507Z,66.56
2018-11-07T16:10:51.014Z,67.37
2018-11-07T16:13:19.574Z,67.32
2018-11-07T16:15:48.031Z,67.54
2018-11-07T16:18:16.912Z,67.21
2018-11-07T16:20:45.452Z,67.76
2018-11-07T16:23:13.992Z,67.30
2018-11-07T16:25:42.444Z,67.07
2018-11-07T16:28:10.946Z,67.54
2018-11-07T16:30:39.490Z,67.82
2018-11-07T16:33:08.036Z,66.69
2018-11-07T16:35:36.590Z,68.06
2018-11-07T16:38:05.253Z,67.83
2018-11-07T16:40:33.760Z,68.03
2018-11-07T16:43:02.412Z,67.98
2018-11-07T16:45:30.914Z,67.58
2018-11-07T16:47:59.451Z,67.85
2018-11-07T16:50:27.972Z,68.91
2018-11-07T16:52:56.463Z,69.55
2018-11-07T16:55:24.983Z,69.50
2018-11-07T16:57:53.498Z,69.92
2018-11-07T17:00:22.170Z,69.64
2018-11-07T17:02:50.964Z,69.66
2018-11-07T17:05:19.982Z,69.00
2018-11-07T17:07:48.877Z,69.39
2018-11-07T17:10:17.771Z,69.68
2018-11-07T17:12:46.269Z,69.43
2018-11-07T17:15:14.813Z,68.87
2018-11-07T17:17:43.436Z,69.59
2018-11-07T17:20:13.239Z,69.96
2018-11-07T17:22:42.138Z,70.50
2018-11-07T17:25:13.702Z,70.32
2018-11-07T17:27:43.011Z,70.72
2018-11-07T17:30:12.795Z,70.69
2018-11-07T17:32:41.319Z,70.64
2018-11-07T17:35:12.044Z,70.98
2018-11-07T17:37:40.853Z,70.31
2018-11-07T17:40:12.898Z,70.91
2018-11-07T17:42:41.410Z,71.00
2018-11-07T17:45:11.923Z,70.85
2018-11-07T17:47:41.130Z,70.99
2018-11-07T17:50:10.879Z,70.89
2018-11-07T17:52:39.927Z,70.85
2018-11-07T17:55:09.235Z,72.05
2018-11-07T17:57:37.752Z,71.86
2018-11-07T18:00:08.322Z,71.73
2018-11-07T18:02:36.830Z,72.01
2018-11-07T18:05:05.525Z,72.03
2018-11-07T18:07:34.083Z,71.97
2018-11-07T18:10:02.628Z,72.14
2018-11-07T18:12:31.159Z,71.62
2018-11-07T18:14:59.742Z,71.70
2018-11-07T18:17:28.398Z,72.21
2018-11-07T18:19:56.906Z,71.74
2018-11-07T18:22:25.436Z,72.52
2018-11-07T18:24:53.946Z,73.11
2018-11-07T18:27:22.895Z,72.96
2018-11-07T18:29:51.343Z,72.54
2018-11-07T18:32:19.858Z,72.36
2018-11-07T18:34:48.338Z,72.58
2018-11-07T18:37:16.875Z,72.45
2018-11-07T18:39:45.427Z,72.20
2018-11-07T18:42:14.037Z,72.74
2018-11-07T18:44:42.620Z,72.36
2018-11-07T18:47:11.861Z,71.89
2018-11-07T18:49:40.374Z,72.12
2018-11-07T18:52:09.029Z,72.38
2018-11-07T18:56:47.555Z,72.50
2018-11-07T18:59:16.087Z,72.41
2018-11-07T19:01:45.543Z,72.56
2018-11-07T19:04:14.343Z,72.15
2018-11-07T19:07:45.485Z,72.29
2018-11-07T19:10:17.919Z,72.57
2018-11-07T19:12:47.994Z,72.37
2018-11-07T19:15:18.314Z,72.95
2018-11-07T19:17:50.783Z,72.86
2018-11-07T19:20:21.805Z,73.06
2018-11-07T19:22:51.991Z,72.83
2018-11-07T19:25:22.391Z,73.57
2018-11-07T19:27:52.853Z,73.31
2018-11-07T19:30:23.254Z,73.64
2018-11-07T19:32:54.023Z,73.92
2018-11-07T19:35:23.834Z,73.34
2018-11-07T19:37:53.833Z,72.89
2018-11-07T19:40:26.378Z,73.31
2018-11-07T19:42:56.044Z,73.17
2018-11-07T19:45:26.815Z,72.75
2018-11-07T19:47:57.446Z,73.19
2018-11-07T19:50:27.934Z,73.65
2018-11-07T19:52:58.993Z,73.75
2018-11-07T19:55:28.913Z,73.75
2018-11-07T19:58:00.667Z,73.56
2018-11-07T20:00:30.389Z,73.88
2018-11-07T20:03:01.360Z,73.66
2018-11-07T20:05:33.857Z,73.89
2018-11-07T20:08:05.275Z,73.53
2018-11-07T20:10:37.099Z,73.60
2018-11-07T20:13:09.203Z,74.48
2018-11-07T20:15:40.252Z,74.08
2018-11-07T20:18:10.129Z,74.14
2018-11-07T20:20:40.044Z,74.22
2018-11-07T20:23:11.010Z,74.10
2018-11-07T20:25:41.075Z,74.21
2018-11-07T20:28:12.241Z,74.42
2018-11-07T20:30:42.347Z,74.51
2018-11-07T20:33:18.887Z,74.47
2018-11-07T20:35:52.329Z,74.22
2018-11-07T20:38:22.891Z,74.38
2018-11-07T20:40:56.120Z,74.93
2018-11-07T20:43:27.320Z,74.46
2018-11-07T20:45:57.325Z,75.16
2018-11-07T20:48:29.074Z,74.79
2018-11-07T20:51:04.122Z,74.67
2018-11-07T20:53:33.541Z,74.71
2018-11-07T20:56:06.398Z,74.67
2018-11-07T20:58:37.166Z,74.74
2018-11-07T21:01:09.357Z,75.18
2018-11-07T21:03:40.244Z,74.87
2018-11-07T21:06:10.182Z,74.45
2018-11-07T21:08:40.102Z,74.98
2018-11-07T21:11:11.158Z,75.08
2018-11-07T21:13:43.202Z,75.39
2018-11-07T21:16:13.354Z,74.97
2018-11-07T21:18:43.251Z,75.31
2018-11-07T21:21:13.179Z,74.98
2018-11-07T21:23:43.314Z,75.70
2018-11-07T21:26:15.114Z,75.70
2018-11-07T21:28:48.479Z,75.70
2018-11-07T21:31:19.175Z,75.45
2018-11-07T21:33:52.328Z,75.49
2018-11-07T21:36:23.235Z,75.70
2018-11-07T21:38:57.033Z,75.51
2018-11-07T21:41:33.134Z,75.31
2018-11-07T21:44:07.782Z,75.51
2018-11-07T21:46:37.496Z,75.70
2018-11-07T21:49:07.721Z,75.59
2018-11-07T21:51:37.502Z,75.50
2018-11-07T21:54:08.102Z,76.23
2018-11-07T21:56:38.864Z,75.73
2018-11-07T21:59:08.950Z,76.53
2018-11-07T22:01:40.365Z,76.25
2018-11-07T22:04:10.287Z,76.05
2018-11-07T22:06:40.504Z,75.66
2018-11-07T22:09:12.258Z,76.06
2018-11-07T22:11:41.975Z,75.88
2018-11-07T22:14:11.675Z,76.03
2018-11-07T22:16:45.349Z,75.51
2018-11-07T22:19:19.326Z,75.82
2018-11-07T22:21:50.547Z,75.45
2018-11-07T22:24:20.681Z,75.79
2018-11-07T22:26:50.547Z,75.70
2018-11-07T22:29:21.642Z,76.39
2018-11-07T22:31:53.036Z,76.48
2018-11-07T22:34:23.716Z,75.86
2018-11-07T22:36:53.642Z,76.24
2018-11-07T22:39:23.658Z,75.88
2018-11-07T22:41:54.734Z,75.70
2018-11-07T22:44:24.626Z,75.86
2018-11-07T22:46:56.053Z,76.08
2018-11-07T22:49:25.597Z,76.03
2018-11-07T22:51:56.699Z,75.91
2018-11-07T22:54:27.782Z,75.62
2018-11-07T22:56:59.899Z,75.73
2018-11-07T22:59:31.835Z,76.23
2018-11-07T23:02:03.489Z,76.27
2018-11-07T23:04:37.483Z,76.62
2018-11-07T23:07:07.755Z,76.45
2018-11-07T23:09:37.643Z,76.34
2018-11-07T23:12:08.785Z,76.29
2018-11-07T23:14:40.769Z,76.40
2018-11-07T23:17:11.014Z,76.41
2018-11-07T23:19:40.788Z,76.38
2018-11-07T23:22:11.822Z,76.74
2018-11-07T23:24:42.591Z,76.36
2018-11-07T23:27:12.852Z,76.70
2018-11-07T23:29:43.294Z,76.82
2018-11-07T23:32:13.659Z,76.84
2018-11-07T23:34:46.763Z,76.76
2018-11-07T23:37:17.677Z,76.95
2018-11-07T23:39:50.898Z,76.85
2018-11-07T23:42:20.735Z,76.73
2018-11-07T23:44:57.671Z,77.09
2018-11-07T23:47:27.979Z,76.88
2018-11-07T23:49:58.888Z,77.09
2018-11-07T23:52:34.137Z,77.02
2018-11-07T23:55:06.203Z,77.01
2018-11-07T23:57:38.019Z,77.21
